sensor_id;sensor_type;location;lat;lon;timestamp;temperature;humidity
4755;DHT22;2391;47.212;7.542;2023-11-21T00:02:21;11.20;96.50
4755;DHT22;2391;47.212;7.542;2023-11-21T00:04:48;11.30;96.30
4755;DHT22;2391;47.212;7.542;2023-11-21T00:07:14;11.30;96.20
4755;DHT22;2391;47.212;7.542;2023-11-21T00:09:41;11.20;96.00
4755;DHT22;2391;47.212;7.542;2023-11-21T00:12:08;11.20;95.70
4755;DHT22;2391;47.212;7.542;2023-11-21T00:14:37;11.20;95.90
4755;DHT22;2391;47.212;7.542;2023-11-21T00:17:06;11.20;95.90
4755;DHT22;2391;47.212;7.542;2023-11-21T00:19:32;11.20;96.00
4755;DHT22;2391;47.212;7.542;2023-11-21T00:22:01;11.20;96.00
4755;DHT22;2391;47.212;7.542;2023-11-21T00:24:27;11.20;96.10
4755;DHT22;2391;47.212;7.542;2023-11-21T00:26:53;11.30;96.10
4755;DHT22;2391;47.212;7.542;2023-11-21T00:29:18;11.30;96.10
4755;DHT22;2391;47.212;7.542;2023-11-21T00:31:45;11.40;96.20
4755;DHT22;2391;47.212;7.542;2023-11-21T00:34:12;11.40;96.40
4755;DHT22;2391;47.212;7.542;2023-11-21T00:36:38;11.40;96.50
4755;DHT22;2391;47.212;7.542;2023-11-21T00:39:04;11.40;96.60
4755;DHT22;2391;47.212;7.542;2023-11-21T00:41:32;11.40;96.60
4755;DHT22;2391;47.212;7.542;2023-11-21T00:43:57;11.40;96.60
4755;DHT22;2391;47.212;7.542;2023-11-21T00:46:25;11.40;96.60
4755;DHT22;2391;47.212;7.542;2023-11-21T00:48:52;11.40;96.50
4755;DHT22;2391;47.212;7.542;2023-11-21T00:51:20;11.30;96.30
4755;DHT22;2391;47.212;7.542;2023-11-21T00:53:47;11.30;96.20
4755;DHT22;2391;47.212;7.542;2023-11-21T00:56:13;11.30;96.00
4755;DHT22;2391;47.212;7.542;2023-11-21T00:58:39;11.30;96.10
4755;DHT22;2391;47.212;7.542;2023-11-21T01:01:07;11.20;96.20
4755;DHT22;2391;47.212;7.542;2023-11-21T01:03:32;11.20;96.00
4755;DHT22;2391;47.212;7.542;2023-11-21T01:05:58;11.20;96.00
4755;DHT22;2391;47.212;7.542;2023-11-21T01:08:24;11.20;96.00
4755;DHT22;2391;47.212;7.542;2023-11-21T01:10:50;11.10;95.90
4755;DHT22;2391;47.212;7.542;2023-11-21T01:13:16;11.10;95.80
4755;DHT22;2391;47.212;7.542;2023-11-21T01:15:42;11.00;95.80
4755;DHT22;2391;47.212;7.542;2023-11-21T01:18:08;11.00;95.80
4755;DHT22;2391;47.212;7.542;2023-11-21T01:20:34;10.90;95.80
4755;DHT22;2391;47.212;7.542;2023-11-21T01:23:00;10.90;95.80
4755;DHT22;2391;47.212;7.542;2023-11-21T01:25:26;10.80;95.80
4755;DHT22;2391;47.212;7.542;2023-11-21T01:27:52;10.70;95.80
4755;DHT22;2391;47.212;7.542;2023-11-21T01:30:17;10.60;95.80
4755;DHT22;2391;47.212;7.542;2023-11-21T01:32:43;10.60;96.00
4755;DHT22;2391;47.212;7.542;2023-11-21T01:35:10;10.60;96.10
4755;DHT22;2391;47.212;7.542;2023-11-21T01:37:37;10.60;96.10
4755;DHT22;2391;47.212;7.542;2023-11-21T01:40:03;10.70;96.20
4755;DHT22;2391;47.212;7.542;2023-11-21T01:42:31;10.70;96.20
4755;DHT22;2391;47.212;7.542;2023-11-21T01:44:56;10.90;96.30
4755;DHT22;2391;47.212;7.542;2023-11-21T01:47:22;10.90;96.20
4755;DHT22;2391;47.212;7.542;2023-11-21T01:49:48;11.00;96.20
4755;DHT22;2391;47.212;7.542;2023-11-21T01:52:14;11.00;96.00
4755;DHT22;2391;47.212;7.542;2023-11-21T01:54:41;11.00;96.10
4755;DHT22;2391;47.212;7.542;2023-11-21T01:57:08;10.90;96.10
4755;DHT22;2391;47.212;7.542;2023-11-21T01:59:37;10.80;96.20
4755;DHT22;2391;47.212;7.542;2023-11-21T02:02:05;10.80;96.40
4755;DHT22;2391;47.212;7.542;2023-11-21T02:04:32;10.80;96.50
4755;DHT22;2391;47.212;7.542;2023-11-21T02:06:58;10.80;96.60
4755;DHT22;2391;47.212;7.542;2023-11-21T02:09:28;10.80;96.60
4755;DHT22;2391;47.212;7.542;2023-11-21T02:11:57;10.80;96.80
4755;DHT22;2391;47.212;7.542;2023-11-21T02:14:25;10.80;97.00
4755;DHT22;2391;47.212;7.542;2023-11-21T02:16:53;10.90;97.20
4755;DHT22;2391;47.212;7.542;2023-11-21T02:19:21;10.90;97.30
4755;DHT22;2391;47.212;7.542;2023-11-21T02:21:56;11.00;97.50
4755;DHT22;2391;47.212;7.542;2023-11-21T02:24:30;11.00;97.60
4755;DHT22;2391;47.212;7.542;2023-11-21T02:26:57;11.00;97.60
4755;DHT22;2391;47.212;7.542;2023-11-21T02:29:23;11.00;97.60
4755;DHT22;2391;47.212;7.542;2023-11-21T02:31:52;11.00;97.60
4755;DHT22;2391;47.212;7.542;2023-11-21T02:34:21;11.00;97.60
4755;DHT22;2391;47.212;7.542;2023-11-21T02:36:47;11.00;97.60
4755;DHT22;2391;47.212;7.542;2023-11-21T02:39:17;11.10;97.70
4755;DHT22;2391;47.212;7.542;2023-11-21T02:41:43;11.10;97.80
4755;DHT22;2391;47.212;7.542;2023-11-21T02:44:10;11.10;97.80
4755;DHT22;2391;47.212;7.542;2023-11-21T02:46:36;11.10;97.90
4755;DHT22;2391;47.212;7.542;2023-11-21T02:49:03;11.10;97.90
4755;DHT22;2391;47.212;7.542;2023-11-21T02:51:32;11.00;97.90
4755;DHT22;2391;47.212;7.542;2023-11-21T02:53:57;11.10;98.00
4755;DHT22;2391;47.212;7.542;2023-11-21T02:56:25;11.00;97.90
4755;DHT22;2391;47.212;7.542;2023-11-21T02:58:57;11.10;98.00
4755;DHT22;2391;47.212;7.542;2023-11-21T03:01:23;11.10;98.00
4755;DHT22;2391;47.212;7.542;2023-11-21T03:03:49;11.10;98.00
4755;DHT22;2391;47.212;7.542;2023-11-21T03:06:18;11.00;98.00
4755;DHT22;2391;47.212;7.542;2023-11-21T03:08:44;11.00;98.10
4755;DHT22;2391;47.212;7.542;2023-11-21T03:11:09;10.90;98.10
4755;DHT22;2391;47.212;7.542;2023-11-21T03:13:35;10.90;98.20
4755;DHT22;2391;47.212;7.542;2023-11-21T03:16:01;10.90;98.30
4755;DHT22;2391;47.212;7.542;2023-11-21T03:18:26;10.80;98.30
4755;DHT22;2391;47.212;7.542;2023-11-21T03:20:54;10.80;98.30
4755;DHT22;2391;47.212;7.542;2023-11-21T03:23:20;10.80;98.40
4755;DHT22;2391;47.212;7.542;2023-11-21T03:25:46;10.90;98.50
4755;DHT22;2391;47.212;7.542;2023-11-21T03:28:12;10.90;98.50
4755;DHT22;2391;47.212;7.542;2023-11-21T03:30:38;10.90;98.40
4755;DHT22;2391;47.212;7.542;2023-11-21T03:33:04;10.90;98.50
4755;DHT22;2391;47.212;7.542;2023-11-21T03:35:29;10.90;98.50
4755;DHT22;2391;47.212;7.542;2023-11-21T03:37:55;10.90;98.40
4755;DHT22;2391;47.212;7.542;2023-11-21T03:40:21;10.90;98.50
4755;DHT22;2391;47.212;7.542;2023-11-21T03:42:47;11.00;98.40
4755;DHT22;2391;47.212;7.542;2023-11-21T03:45:13;11.00;98.40
4755;DHT22;2391;47.212;7.542;2023-11-21T03:47:41;11.00;98.40
4755;DHT22;2391;47.212;7.542;2023-11-21T03:50:08;11.00;98.40
4755;DHT22;2391;47.212;7.542;2023-11-21T03:52:35;11.00;98.40
4755;DHT22;2391;47.212;7.542;2023-11-21T03:55:02;11.00;98.40
4755;DHT22;2391;47.212;7.542;2023-11-21T03:57:28;11.00;98.30
4755;DHT22;2391;47.212;7.542;2023-11-21T03:59:53;11.10;98.40
4755;DHT22;2391;47.212;7.542;2023-11-21T04:02:19;11.10;98.30
4755;DHT22;2391;47.212;7.542;2023-11-21T04:04:45;11.10;98.30
4755;DHT22;2391;47.212;7.542;2023-11-21T04:07:11;11.10;98.30
4755;DHT22;2391;47.212;7.542;2023-11-21T04:09:39;11.10;98.30
4755;DHT22;2391;47.212;7.542;2023-11-21T04:12:07;11.10;98.20
4755;DHT22;2391;47.212;7.542;2023-11-21T04:14:34;11.10;98.30
4755;DHT22;2391;47.212;7.542;2023-11-21T04:17:00;11.10;98.30
4755;DHT22;2391;47.212;7.542;2023-11-21T04:19:26;11.10;98.20
4755;DHT22;2391;47.212;7.542;2023-11-21T04:21:52;11.10;98.30
4755;DHT22;2391;47.212;7.542;2023-11-21T04:24:17;11.10;98.30
4755;DHT22;2391;47.212;7.542;2023-11-21T04:26:44;11.10;98.40
4755;DHT22;2391;47.212;7.542;2023-11-21T04:29:09;11.10;98.40
4755;DHT22;2391;47.212;7.542;2023-11-21T04:31:35;11.10;98.40
4755;DHT22;2391;47.212;7.542;2023-11-21T04:34:01;11.10;98.50
4755;DHT22;2391;47.212;7.542;2023-11-21T04:36:28;11.10;98.50
4755;DHT22;2391;47.212;7.542;2023-11-21T04:38:55;11.10;98.60
4755;DHT22;2391;47.212;7.542;2023-11-21T04:41:21;11.10;98.60
4755;DHT22;2391;47.212;7.542;2023-11-21T04:43:47;11.00;98.60
4755;DHT22;2391;47.212;7.542;2023-11-21T04:46:12;11.10;98.60
4755;DHT22;2391;47.212;7.542;2023-11-21T04:48:41;11.00;98.70
4755;DHT22;2391;47.212;7.542;2023-11-21T04:51:07;11.00;98.70
4755;DHT22;2391;47.212;7.542;2023-11-21T04:53:32;11.00;98.80
4755;DHT22;2391;47.212;7.542;2023-11-21T04:55:58;11.00;98.80
4755;DHT22;2391;47.212;7.542;2023-11-21T04:58:24;11.00;98.90
4755;DHT22;2391;47.212;7.542;2023-11-21T05:00:49;11.00;99.10
4755;DHT22;2391;47.212;7.542;2023-11-21T05:03:15;11.00;98.90
4755;DHT22;2391;47.212;7.542;2023-11-21T05:05:41;11.00;98.80
4755;DHT22;2391;47.212;7.542;2023-11-21T05:08:07;11.00;98.90
4755;DHT22;2391;47.212;7.542;2023-11-21T05:10:34;11.00;98.80
4755;DHT22;2391;47.212;7.542;2023-11-21T05:12:59;11.00;98.90
4755;DHT22;2391;47.212;7.542;2023-11-21T05:15:25;11.00;98.90
4755;DHT22;2391;47.212;7.542;2023-11-21T05:17:53;11.00;99.00
4755;DHT22;2391;47.212;7.542;2023-11-21T05:20:19;10.90;99.00
4755;DHT22;2391;47.212;7.542;2023-11-21T05:22:47;11.00;99.00
4755;DHT22;2391;47.212;7.542;2023-11-21T05:25:16;11.00;99.00
4755;DHT22;2391;47.212;7.542;2023-11-21T05:27:48;11.00;99.00
4755;DHT22;2391;47.212;7.542;2023-11-21T05:30:13;11.00;99.00
4755;DHT22;2391;47.212;7.542;2023-11-21T05:32:40;11.00;99.00
4755;DHT22;2391;47.212;7.542;2023-11-21T05:35:09;11.00;98.90
4755;DHT22;2391;47.212;7.542;2023-11-21T05:37:37;11.00;99.00
4755;DHT22;2391;47.212;7.542;2023-11-21T05:40:05;11.00;99.00
4755;DHT22;2391;47.212;7.542;2023-11-21T05:42:32;11.00;99.00
4755;DHT22;2391;47.212;7.542;2023-11-21T05:44:58;10.90;99.10
4755;DHT22;2391;47.212;7.542;2023-11-21T05:47:43;10.90;99.10
4755;DHT22;2391;47.212;7.542;2023-11-21T05:50:09;10.90;99.20
4755;DHT22;2391;47.212;7.542;2023-11-21T05:52:37;10.90;99.30
4755;DHT22;2391;47.212;7.542;2023-11-21T05:55:04;10.90;99.30
4755;DHT22;2391;47.212;7.542;2023-11-21T05:57:37;10.90;99.30
4755;DHT22;2391;47.212;7.542;2023-11-21T06:00:05;10.90;99.40
4755;DHT22;2391;47.212;7.542;2023-11-21T06:02:33;10.80;99.30
4755;DHT22;2391;47.212;7.542;2023-11-21T06:04:59;10.80;99.30
4755;DHT22;2391;47.212;7.542;2023-11-21T06:07:25;10.90;99.50
4755;DHT22;2391;47.212;7.542;2023-11-21T06:09:50;10.90;99.50
4755;DHT22;2391;47.212;7.542;2023-11-21T06:12:16;10.80;99.60
4755;DHT22;2391;47.212;7.542;2023-11-21T06:14:42;10.80;99.60
4755;DHT22;2391;47.212;7.542;2023-11-21T06:17:08;10.80;99.60
4755;DHT22;2391;47.212;7.542;2023-11-21T06:19:35;10.80;99.60
4755;DHT22;2391;47.212;7.542;2023-11-21T06:22:01;10.80;99.60
4755;DHT22;2391;47.212;7.542;2023-11-21T06:24:27;10.90;99.60
4755;DHT22;2391;47.212;7.542;2023-11-21T06:26:53;10.90;99.60
4755;DHT22;2391;47.212;7.542;2023-11-21T06:29:19;10.90;99.60
4755;DHT22;2391;47.212;7.542;2023-11-21T06:31:44;10.90;99.70
4755;DHT22;2391;47.212;7.542;2023-11-21T06:34:11;10.90;99.60
4755;DHT22;2391;47.212;7.542;2023-11-21T06:36:37;10.90;99.70
4755;DHT22;2391;47.212;7.542;2023-11-21T06:39:03;10.90;99.70
4755;DHT22;2391;47.212;7.542;2023-11-21T06:41:31;11.00;99.70
4755;DHT22;2391;47.212;7.542;2023-11-21T06:43:56;11.00;99.70
4755;DHT22;2391;47.212;7.542;2023-11-21T06:46:24;10.90;99.70
4755;DHT22;2391;47.212;7.542;2023-11-21T06:48:50;10.90;99.70
4755;DHT22;2391;47.212;7.542;2023-11-21T06:51:16;10.90;99.80
4755;DHT22;2391;47.212;7.542;2023-11-21T06:53:41;10.90;99.90
4755;DHT22;2391;47.212;7.542;2023-11-21T06:56:19;10.90;99.80
4755;DHT22;2391;47.212;7.542;2023-11-21T06:58:46;10.90;99.90
4755;DHT22;2391;47.212;7.542;2023-11-21T07:01:13;10.90;99.80
4755;DHT22;2391;47.212;7.542;2023-11-21T07:03:39;10.90;99.90
4755;DHT22;2391;47.212;7.542;2023-11-21T07:06:07;10.90;99.90
4755;DHT22;2391;47.212;7.542;2023-11-21T07:08:33;10.90;99.90
4755;DHT22;2391;47.212;7.542;2023-11-21T07:10:59;10.80;99.90
4755;DHT22;2391;47.212;7.542;2023-11-21T07:13:24;10.90;99.90
4755;DHT22;2391;47.212;7.542;2023-11-21T07:15:51;10.80;99.90
4755;DHT22;2391;47.212;7.542;2023-11-21T07:18:18;10.80;99.90
4755;DHT22;2391;47.212;7.542;2023-11-21T07:20:43;10.90;99.90
4755;DHT22;2391;47.212;7.542;2023-11-21T07:23:09;10.90;99.90
4755;DHT22;2391;47.212;7.542;2023-11-21T07:25:36;10.90;99.90
4755;DHT22;2391;47.212;7.542;2023-11-21T07:28:01;10.90;99.90
4755;DHT22;2391;47.212;7.542;2023-11-21T07:30:27;10.90;99.90
4755;DHT22;2391;47.212;7.542;2023-11-21T07:32:53;10.90;99.90
4755;DHT22;2391;47.212;7.542;2023-11-21T07:35:19;10.90;99.90
4755;DHT22;2391;47.212;7.542;2023-11-21T07:37:45;10.90;99.90
4755;DHT22;2391;47.212;7.542;2023-11-21T07:40:12;10.90;99.90
4755;DHT22;2391;47.212;7.542;2023-11-21T07:42:38;10.90;99.90
4755;DHT22;2391;47.212;7.542;2023-11-21T07:45:05;10.80;99.90
4755;DHT22;2391;47.212;7.542;2023-11-21T07:47:32;10.80;99.90
4755;DHT22;2391;47.212;7.542;2023-11-21T07:50:01;10.80;99.90
4755;DHT22;2391;47.212;7.542;2023-11-21T07:52:28;10.80;99.90
4755;DHT22;2391;47.212;7.542;2023-11-21T07:54:54;10.80;99.90
4755;DHT22;2391;47.212;7.542;2023-11-21T07:57:19;10.80;99.90
4755;DHT22;2391;47.212;7.542;2023-11-21T07:59:45;10.80;99.90
4755;DHT22;2391;47.212;7.542;2023-11-21T08:02:11;10.80;99.90
4755;DHT22;2391;47.212;7.542;2023-11-21T08:04:37;10.80;99.90
4755;DHT22;2391;47.212;7.542;2023-11-21T08:07:03;10.90;99.90
4755;DHT22;2391;47.212;7.542;2023-11-21T08:09:29;10.80;99.90
4755;DHT22;2391;47.212;7.542;2023-11-21T08:11:55;10.90;99.90
4755;DHT22;2391;47.212;7.542;2023-11-21T08:14:22;10.90;99.90
4755;DHT22;2391;47.212;7.542;2023-11-21T08:16:50;10.80;99.90
4755;DHT22;2391;47.212;7.542;2023-11-21T08:19:15;10.90;99.90
4755;DHT22;2391;47.212;7.542;2023-11-21T08:21:42;10.90;99.90
4755;DHT22;2391;47.212;7.542;2023-11-21T08:24:08;10.80;99.90
4755;DHT22;2391;47.212;7.542;2023-11-21T08:26:35;10.80;99.90
4755;DHT22;2391;47.212;7.542;2023-11-21T08:29:01;10.80;99.90
4755;DHT22;2391;47.212;7.542;2023-11-21T08:31:28;10.90;99.90
4755;DHT22;2391;47.212;7.542;2023-11-21T08:33:55;10.90;99.90
4755;DHT22;2391;47.212;7.542;2023-11-21T08:36:23;11.00;99.90
4755;DHT22;2391;47.212;7.542;2023-11-21T08:38:52;10.90;99.90
4755;DHT22;2391;47.212;7.542;2023-11-21T08:41:18;10.90;99.90
4755;DHT22;2391;47.212;7.542;2023-11-21T08:43:45;10.80;99.90
4755;DHT22;2391;47.212;7.542;2023-11-21T08:46:13;10.90;99.90
4755;DHT22;2391;47.212;7.542;2023-11-21T08:48:40;10.90;99.90
4755;DHT22;2391;47.212;7.542;2023-11-21T08:51:09;10.90;99.90
4755;DHT22;2391;47.212;7.542;2023-11-21T08:53:35;11.00;99.90
4755;DHT22;2391;47.212;7.542;2023-11-21T08:56:01;11.00;99.90
4755;DHT22;2391;47.212;7.542;2023-11-21T08:58:27;11.00;99.90
4755;DHT22;2391;47.212;7.542;2023-11-21T09:00:53;11.10;99.90
4755;DHT22;2391;47.212;7.542;2023-11-21T09:03:19;11.10;99.90
4755;DHT22;2391;47.212;7.542;2023-11-21T09:05:44;11.10;99.90
4755;DHT22;2391;47.212;7.542;2023-11-21T09:08:10;11.20;99.90
4755;DHT22;2391;47.212;7.542;2023-11-21T09:10:36;11.20;99.90
4755;DHT22;2391;47.212;7.542;2023-11-21T09:13:02;11.10;99.90
4755;DHT22;2391;47.212;7.542;2023-11-21T09:15:28;11.10;99.90
4755;DHT22;2391;47.212;7.542;2023-11-21T09:17:54;11.10;99.90
4755;DHT22;2391;47.212;7.542;2023-11-21T09:20:20;11.10;99.90
4755;DHT22;2391;47.212;7.542;2023-11-21T09:22:47;11.10;99.90
4755;DHT22;2391;47.212;7.542;2023-11-21T09:25:13;11.20;99.90
4755;DHT22;2391;47.212;7.542;2023-11-21T09:27:39;11.10;99.90
4755;DHT22;2391;47.212;7.542;2023-11-21T09:30:06;11.10;99.90
4755;DHT22;2391;47.212;7.542;2023-11-21T09:32:34;11.00;99.90
4755;DHT22;2391;47.212;7.542;2023-11-21T09:35:03;11.00;99.90
4755;DHT22;2391;47.212;7.542;2023-11-21T09:37:30;11.00;99.90
4755;DHT22;2391;47.212;7.542;2023-11-21T09:39:56;10.90;99.90
4755;DHT22;2391;47.212;7.542;2023-11-21T09:42:25;10.90;99.90
4755;DHT22;2391;47.212;7.542;2023-11-21T09:45:06;10.90;99.90
4755;DHT22;2391;47.212;7.542;2023-11-21T09:47:35;10.90;99.90
4755;DHT22;2391;47.212;7.542;2023-11-21T09:50:02;11.00;99.90
4755;DHT22;2391;47.212;7.542;2023-11-21T09:52:28;11.00;99.90
4755;DHT22;2391;47.212;7.542;2023-11-21T09:54:55;11.10;99.90
4755;DHT22;2391;47.212;7.542;2023-11-21T09:57:25;11.00;99.90
4755;DHT22;2391;47.212;7.542;2023-11-21T09:59:52;11.00;99.90
4755;DHT22;2391;47.212;7.542;2023-11-21T10:02:27;11.00;99.90
4755;DHT22;2391;47.212;7.542;2023-11-21T10:04:55;11.00;99.90
4755;DHT22;2391;47.212;7.542;2023-11-21T10:07:22;11.00;99.90
4755;DHT22;2391;47.212;7.542;2023-11-21T10:09:50;11.00;99.90
4755;DHT22;2391;47.212;7.542;2023-11-21T10:12:16;11.00;99.90
4755;DHT22;2391;47.212;7.542;2023-11-21T10:14:43;11.00;99.90
4755;DHT22;2391;47.212;7.542;2023-11-21T10:17:12;11.00;99.90
4755;DHT22;2391;47.212;7.542;2023-11-21T10:19:39;11.10;99.90
4755;DHT22;2391;47.212;7.542;2023-11-21T10:22:06;11.10;99.90
4755;DHT22;2391;47.212;7.542;2023-11-21T10:24:33;11.20;99.90
4755;DHT22;2391;47.212;7.542;2023-11-21T10:26:58;11.10;99.90
4755;DHT22;2391;47.212;7.542;2023-11-21T10:29:29;11.10;99.90
4755;DHT22;2391;47.212;7.542;2023-11-21T10:31:56;11.00;99.90
4755;DHT22;2391;47.212;7.542;2023-11-21T10:34:23;10.90;99.90
4755;DHT22;2391;47.212;7.542;2023-11-21T10:36:49;10.90;99.90
4755;DHT22;2391;47.212;7.542;2023-11-21T10:39:21;10.80;99.90
4755;DHT22;2391;47.212;7.542;2023-11-21T10:41:49;10.80;99.90
4755;DHT22;2391;47.212;7.542;2023-11-21T10:44:18;10.90;99.90
4755;DHT22;2391;47.212;7.542;2023-11-21T10:46:50;10.90;99.90
4755;DHT22;2391;47.212;7.542;2023-11-21T10:49:20;10.90;99.90
4755;DHT22;2391;47.212;7.542;2023-11-21T10:51:45;11.00;99.90
4755;DHT22;2391;47.212;7.542;2023-11-21T10:54:19;11.00;99.90
4755;DHT22;2391;47.212;7.542;2023-11-21T10:56:53;11.00;99.90
4755;DHT22;2391;47.212;7.542;2023-11-21T10:59:18;11.00;99.90
4755;DHT22;2391;47.212;7.542;2023-11-21T11:01:47;11.00;99.90
4755;DHT22;2391;47.212;7.542;2023-11-21T11:04:20;11.00;99.90
4755;DHT22;2391;47.212;7.542;2023-11-21T11:06:57;11.00;99.90
4755;DHT22;2391;47.212;7.542;2023-11-21T11:09:20;11.00;99.90
4755;DHT22;2391;47.212;7.542;2023-11-21T11:11:46;11.00;99.90
4755;DHT22;2391;47.212;7.542;2023-11-21T11:14:14;11.10;99.90
4755;DHT22;2391;47.212;7.542;2023-11-21T11:16:41;11.20;99.90
4755;DHT22;2391;47.212;7.542;2023-11-21T11:19:11;11.20;99.90
4755;DHT22;2391;47.212;7.542;2023-11-21T11:24:50;11.40;99.90
4755;DHT22;2391;47.212;7.542;2023-11-21T11:27:37;11.50;99.90
4755;DHT22;2391;47.212;7.542;2023-11-21T11:32:53;11.50;99.90
4755;DHT22;2391;47.212;7.542;2023-11-21T11:38:09;11.70;99.90
4755;DHT22;2391;47.212;7.542;2023-11-21T11:40:41;11.80;99.90
4755;DHT22;2391;47.212;7.542;2023-11-21T11:43:07;11.80;99.90
4755;DHT22;2391;47.212;7.542;2023-11-21T11:45:34;11.90;99.90
4755;DHT22;2391;47.212;7.542;2023-11-21T11:48:01;12.00;99.90
4755;DHT22;2391;47.212;7.542;2023-11-21T11:50:29;12.00;99.90
4755;DHT22;2391;47.212;7.542;2023-11-21T11:52:57;12.00;99.80
4755;DHT22;2391;47.212;7.542;2023-11-21T11:55:24;11.90;99.90
4755;DHT22;2391;47.212;7.542;2023-11-21T11:57:52;11.90;99.90
4755;DHT22;2391;47.212;7.542;2023-11-21T12:00:22;12.00;99.90
4755;DHT22;2391;47.212;7.542;2023-11-21T12:02:55;12.10;99.90
4755;DHT22;2391;47.212;7.542;2023-11-21T12:05:23;12.00;98.90
4755;DHT22;2391;47.212;7.542;2023-11-21T12:07:53;11.90;97.90
4755;DHT22;2391;47.212;7.542;2023-11-21T12:10:22;11.70;97.60
4755;DHT22;2391;47.212;7.542;2023-11-21T12:12:52;11.60;96.50
4755;DHT22;2391;47.212;7.542;2023-11-21T12:15:20;11.50;96.80
4755;DHT22;2391;47.212;7.542;2023-11-21T12:17:47;11.50;97.00
4755;DHT22;2391;47.212;7.542;2023-11-21T12:20:16;11.50;97.00
4755;DHT22;2391;47.212;7.542;2023-11-21T12:22:47;11.60;96.90
4755;DHT22;2391;47.212;7.542;2023-11-21T12:25:17;11.60;96.90
4755;DHT22;2391;47.212;7.542;2023-11-21T12:27:46;11.60;96.70
4755;DHT22;2391;47.212;7.542;2023-11-21T12:30:16;11.60;96.70
4755;DHT22;2391;47.212;7.542;2023-11-21T12:32:44;11.60;97.00
4755;DHT22;2391;47.212;7.542;2023-11-21T12:35:11;11.60;96.80
4755;DHT22;2391;47.212;7.542;2023-11-21T12:37:38;11.50;96.70
4755;DHT22;2391;47.212;7.542;2023-11-21T12:40:06;11.60;96.60
4755;DHT22;2391;47.212;7.542;2023-11-21T12:42:34;11.60;96.40
4755;DHT22;2391;47.212;7.542;2023-11-21T12:47:44;11.70;96.50
4755;DHT22;2391;47.212;7.542;2023-11-21T12:50:20;11.70;96.40
4755;DHT22;2391;47.212;7.542;2023-11-21T12:52:50;11.70;96.40
4755;DHT22;2391;47.212;7.542;2023-11-21T12:55:18;11.70;96.30
4755;DHT22;2391;47.212;7.542;2023-11-21T12:57:51;11.80;95.70
4755;DHT22;2391;47.212;7.542;2023-11-21T13:00:20;11.80;95.90
4755;DHT22;2391;47.212;7.542;2023-11-21T13:02:56;11.80;95.30
4755;DHT22;2391;47.212;7.542;2023-11-21T13:05:30;11.80;95.50
4755;DHT22;2391;47.212;7.542;2023-11-21T13:07:53;11.90;95.40
4755;DHT22;2391;47.212;7.542;2023-11-21T13:10:23;11.90;94.90
4755;DHT22;2391;47.212;7.542;2023-11-21T13:12:51;11.90;95.30
4755;DHT22;2391;47.212;7.542;2023-11-21T13:15:17;11.90;94.80
4755;DHT22;2391;47.212;7.542;2023-11-21T13:17:44;11.90;94.40
4755;DHT22;2391;47.212;7.542;2023-11-21T13:20:12;11.90;94.90
4755;DHT22;2391;47.212;7.542;2023-11-21T13:22:54;12.10;94.90
4755;DHT22;2391;47.212;7.542;2023-11-21T13:25:23;12.10;94.30
4755;DHT22;2391;47.212;7.542;2023-11-21T13:27:49;12.10;94.40
4755;DHT22;2391;47.212;7.542;2023-11-21T13:30:16;12.00;94.70
4755;DHT22;2391;47.212;7.542;2023-11-21T13:32:43;12.00;95.20
4755;DHT22;2391;47.212;7.542;2023-11-21T13:35:10;11.90;95.30
4755;DHT22;2391;47.212;7.542;2023-11-21T13:37:37;12.00;95.00
4755;DHT22;2391;47.212;7.542;2023-11-21T13:40:04;12.00;94.70
4755;DHT22;2391;47.212;7.542;2023-11-21T13:42:32;12.00;94.80
4755;DHT22;2391;47.212;7.542;2023-11-21T13:44:58;12.10;94.90
4755;DHT22;2391;47.212;7.542;2023-11-21T13:47:24;12.10;95.00
4755;DHT22;2391;47.212;7.542;2023-11-21T13:49:51;12.00;94.90
4755;DHT22;2391;47.212;7.542;2023-11-21T13:52:19;11.90;94.80
4755;DHT22;2391;47.212;7.542;2023-11-21T13:54:46;11.90;95.10
4755;DHT22;2391;47.212;7.542;2023-11-21T13:57:13;11.90;95.20
4755;DHT22;2391;47.212;7.542;2023-11-21T13:59:39;12.00;95.30
4755;DHT22;2391;47.212;7.542;2023-11-21T14:02:04;12.00;95.30
4755;DHT22;2391;47.212;7.542;2023-11-21T14:04:32;12.00;95.30
4755;DHT22;2391;47.212;7.542;2023-11-21T14:07:00;12.10;95.30
4755;DHT22;2391;47.212;7.542;2023-11-21T14:09:27;12.10;95.50
4755;DHT22;2391;47.212;7.542;2023-11-21T14:11:56;12.20;95.60
4755;DHT22;2391;47.212;7.542;2023-11-21T14:14:24;12.20;95.50
4755;DHT22;2391;47.212;7.542;2023-11-21T14:16:51;12.20;95.30
4755;DHT22;2391;47.212;7.542;2023-11-21T14:19:18;12.30;95.20
4755;DHT22;2391;47.212;7.542;2023-11-21T14:21:44;12.30;95.10
4755;DHT22;2391;47.212;7.542;2023-11-21T14:24:11;12.30;95.30
4755;DHT22;2391;47.212;7.542;2023-11-21T14:26:43;12.30;95.30
4755;DHT22;2391;47.212;7.542;2023-11-21T14:29:11;12.30;95.30
4755;DHT22;2391;47.212;7.542;2023-11-21T14:31:39;12.40;95.10
4755;DHT22;2391;47.212;7.542;2023-11-21T14:34:05;12.30;95.00
4755;DHT22;2391;47.212;7.542;2023-11-21T14:36:33;12.20;94.90
4755;DHT22;2391;47.212;7.542;2023-11-21T14:38:59;12.20;95.10
4755;DHT22;2391;47.212;7.542;2023-11-21T14:41:25;12.20;94.90
4755;DHT22;2391;47.212;7.542;2023-11-21T14:43:54;12.10;94.90
4755;DHT22;2391;47.212;7.542;2023-11-21T14:46:22;12.10;95.00
4755;DHT22;2391;47.212;7.542;2023-11-21T14:48:48;12.10;94.90
4755;DHT22;2391;47.212;7.542;2023-11-21T14:51:15;12.10;95.00
4755;DHT22;2391;47.212;7.542;2023-11-21T14:53:46;12.20;95.30
4755;DHT22;2391;47.212;7.542;2023-11-21T14:56:23;12.20;95.30
4755;DHT22;2391;47.212;7.542;2023-11-21T14:58:51;12.20;95.20
4755;DHT22;2391;47.212;7.542;2023-11-21T15:01:16;12.10;94.80
4755;DHT22;2391;47.212;7.542;2023-11-21T15:03:44;12.00;95.00
4755;DHT22;2391;47.212;7.542;2023-11-21T15:06:12;11.90;95.30
4755;DHT22;2391;47.212;7.542;2023-11-21T15:11:34;11.90;95.40
4755;DHT22;2391;47.212;7.542;2023-11-21T15:14:00;11.70;95.40
4755;DHT22;2391;47.212;7.542;2023-11-21T15:16:28;11.50;95.60
4755;DHT22;2391;47.212;7.542;2023-11-21T15:18:54;11.40;95.50
4755;DHT22;2391;47.212;7.542;2023-11-21T15:21:20;11.30;95.60
4755;DHT22;2391;47.212;7.542;2023-11-21T15:23:47;11.30;95.90
4755;DHT22;2391;47.212;7.542;2023-11-21T15:26:13;11.30;95.80
4755;DHT22;2391;47.212;7.542;2023-11-21T15:28:39;11.30;95.90
4755;DHT22;2391;47.212;7.542;2023-11-21T15:31:06;11.30;96.00
4755;DHT22;2391;47.212;7.542;2023-11-21T15:33:33;11.40;96.20
4755;DHT22;2391;47.212;7.542;2023-11-21T15:36:01;11.50;96.20
4755;DHT22;2391;47.212;7.542;2023-11-21T15:38:28;11.60;96.20
4755;DHT22;2391;47.212;7.542;2023-11-21T15:40:54;11.60;96.10
4755;DHT22;2391;47.212;7.542;2023-11-21T15:43:20;11.60;96.00
4755;DHT22;2391;47.212;7.542;2023-11-21T15:45:46;11.70;96.20
4755;DHT22;2391;47.212;7.542;2023-11-21T15:48:12;11.70;96.10
4755;DHT22;2391;47.212;7.542;2023-11-21T15:50:38;11.80;96.20
4755;DHT22;2391;47.212;7.542;2023-11-21T15:53:03;11.70;96.30
4755;DHT22;2391;47.212;7.542;2023-11-21T15:55:30;11.60;96.00
4755;DHT22;2391;47.212;7.542;2023-11-21T15:57:56;11.60;96.20
4755;DHT22;2391;47.212;7.542;2023-11-21T16:00:22;11.50;96.20
4755;DHT22;2391;47.212;7.542;2023-11-21T16:02:50;11.40;96.20
4755;DHT22;2391;47.212;7.542;2023-11-21T16:05:15;11.30;96.20
4755;DHT22;2391;47.212;7.542;2023-11-21T16:07:43;11.20;96.00
4755;DHT22;2391;47.212;7.542;2023-11-21T16:10:09;11.20;96.20
4755;DHT22;2391;47.212;7.542;2023-11-21T16:12:40;11.20;96.10
4755;DHT22;2391;47.212;7.542;2023-11-21T16:15:07;11.20;96.20
4755;DHT22;2391;47.212;7.542;2023-11-21T16:17:36;11.20;96.40